Time;durP1;ratioP1;P1;durP2;ratioP2;P2;SDS_P1;SDS_P2;PMS_P1;PMS_P2;Temp;Humidity;BMP_temperature;BMP_pressure;BME280_temperature;BME280_humidity;BME280_pressure;Samples;Min_cycle;Max_cycle;Signal;HPM_P1;HPM_P2
2023/03/22 00:02:05;;;;;;;14.20;5.45;;;7.80;99.90;;;;;;5076702;28;25073;-74
2023/03/22 00:04:32;;;;;;;11.43;6.18;;;7.70;99.90;;;;;;5076624;28;25115;-74
2023/03/22 00:07:00;;;;;;;12.15;6.32;;;7.70;99.90;;;;;;5076760;28;25043;-74
2023/03/22 00:09:27;;;;;;;14.18;6.43;;;7.60;99.90;;;;;;5076615;28;25063;-74
2023/03/22 00:11:55;;;;;;;12.88;6.03;;;7.60;99.90;;;;;;5076620;28;25157;-74
2023/03/22 00:14:22;;;;;;;11.52;5.90;;;7.50;99.90;;;;;;5076488;28;25098;-74
2023/03/22 00:16:49;;;;;;;12.15;6.70;;;7.50;99.90;;;;;;5076944;28;25052;-75
2023/03/22 00:19:17;;;;;;;12.00;6.85;;;7.50;99.90;;;;;;5076366;28;25056;-74
2023/03/22 00:21:45;;;;;;;15.88;7.88;;;7.40;99.90;;;;;;5076760;28;25092;-74
2023/03/22 00:24:12;;;;;;;11.70;7.13;;;7.50;99.90;;;;;;5076251;28;25113;-74
2023/03/22 00:26:39;;;;;;;11.25;6.07;;;7.50;99.90;;;;;;5076397;28;25057;-74
2023/03/22 00:29:07;;;;;;;13.20;6.53;;;7.60;99.90;;;;;;5058551;28;25086;-74
2023/03/22 00:31:34;;;;;;;13.55;6.63;;;7.60;99.90;;;;;;5076366;28;25067;-74
2023/03/22 00:34:02;;;;;;;14.13;7.93;;;7.60;99.90;;;;;;5076333;28;25052;-74
2023/03/22 00:36:29;;;;;;;15.57;7.10;;;7.70;99.90;;;;;;5076361;28;25107;-74
2023/03/22 00:38:57;;;;;;;15.60;7.35;;;7.70;99.90;;;;;;5076785;28;25058;-74
2023/03/22 00:41:25;;;;;;;11.30;7.30;;;7.70;99.90;;;;;;5076736;28;25061;-74
2023/03/22 00:43:52;;;;;;;13.93;8.05;;;7.70;99.90;;;;;;5076132;28;25122;-74
2023/03/22 00:46:21;;;;;;;17.45;8.93;;;7.80;99.90;;;;;;5076766;28;25119;-74
2023/03/22 00:48:48;;;;;;;16.08;7.90;;;7.80;99.90;;;;;;5076237;28;25119;-74
2023/03/22 00:51:16;;;;;;;17.02;8.70;;;7.80;99.90;;;;;;5076283;28;25139;-74
2023/03/22 00:53:44;;;;;;;14.35;7.85;;;7.80;99.90;;;;;;5076426;28;25076;-74
2023/03/22 00:56:12;;;;;;;13.55;7.50;;;7.80;99.90;;;;;;5076676;28;25053;-74
2023/03/22 00:58:40;;;;;;;15.95;9.07;;;7.80;99.90;;;;;;5076352;28;25069;-75
2023/03/22 01:01:13;;;;;;;20.48;9.30;;;7.80;99.90;;;;;;5076100;28;25062;-74
2023/03/22 01:03:42;;;;;;;15.50;8.95;;;7.80;99.90;;;;;;5076056;28;25062;-75
2023/03/22 01:06:10;;;;;;;16.95;9.15;;;7.80;99.90;;;;;;5076617;28;25057;-74
2023/03/22 01:08:38;;;;;;;13.90;9.05;;;7.90;99.90;;;;;;5080023;28;25151;-74
2023/03/22 01:11:07;;;;;;;15.98;8.68;;;7.80;99.90;;;;;;5080405;28;25116;-74
2023/03/22 01:13:36;;;;;;;16.77;8.30;;;7.80;99.90;;;;;;5079910;28;25103;-74
2023/03/22 01:16:05;;;;;;;16.08;8.48;;;7.90;99.90;;;;;;5080172;28;25095;-74
2023/03/22 01:18:32;;;;;;;18.02;9.10;;;7.90;99.90;;;;;;5079783;28;25059;-74
2023/03/22 01:20:59;;;;;;;17.05;8.40;;;7.90;99.90;;;;;;5079840;28;25078;-74
2023/03/22 01:23:27;;;;;;;19.48;9.32;;;7.90;99.90;;;;;;5080265;28;25086;-74
2023/03/22 01:25:54;;;;;;;22.50;9.52;;;7.90;99.90;;;;;;5079706;28;25069;-74
2023/03/22 01:28:21;;;;;;;19.40;9.93;;;8.00;99.90;;;;;;5079863;28;25081;-74
2023/03/22 01:30:49;;;;;;;16.23;8.85;;;8.00;99.90;;;;;;5079774;28;25078;-74
2023/03/22 01:33:17;;;;;;;20.20;9.93;;;8.10;99.90;;;;;;5079516;28;25062;-74
2023/03/22 01:35:44;;;;;;;19.33;9.80;;;8.10;99.90;;;;;;5080026;28;25101;-74
2023/03/22 01:38:11;;;;;;;22.88;10.18;;;8.10;99.90;;;;;;5079884;28;25056;-74
2023/03/22 01:40:39;;;;;;;19.30;10.10;;;8.10;99.90;;;;;;5079556;28;25062;-74
2023/03/22 01:43:13;;;;;;;18.05;8.68;;;8.20;99.90;;;;;;5079325;28;25080;-74
2023/03/22 01:45:45;;;;;;;13.57;8.43;;;8.20;99.90;;;;;;5079560;28;25061;-74
2023/03/22 01:48:33;;;;;;;14.65;7.18;;;8.30;99.90;;;;;;5079700;28;25074;-74
2023/03/22 01:51:07;;;;;;;13.20;7.82;;;8.30;99.90;;;;;;5078983;28;25066;-74
2023/03/22 01:53:44;;;;;;;13.68;7.97;;;8.40;99.90;;;;;;5061380;28;25057;-74
2023/03/22 01:56:12;;;;;;;17.15;7.22;;;8.40;99.90;;;;;;5061520;28;25094;-74
2023/03/22 01:58:41;;;;;;;16.65;7.25;;;8.40;99.90;;;;;;5079068;28;25100;-74
2023/03/22 02:01:10;;;;;;;12.73;7.45;;;8.50;99.90;;;;;;5079550;28;25071;-74
2023/03/22 02:03:52;;;;;;;14.05;7.13;;;8.50;99.90;;;;;;5078897;28;25144;-74
2023/03/22 02:06:20;;;;;;;13.63;7.15;;;8.50;99.90;;;;;;5079606;28;25139;-74
2023/03/22 02:08:51;;;;;;;14.55;8.45;;;8.60;99.90;;;;;;5078874;28;25118;-74
2023/03/22 02:11:33;;;;;;;18.67;8.40;;;8.60;99.90;;;;;;5078769;28;25114;-74
2023/03/22 02:14:11;;;;;;;14.70;8.45;;;8.60;99.90;;;;;;5061033;28;25063;-74
2023/03/22 02:16:51;;;;;;;13.00;7.80;;;8.60;99.90;;;;;;5078438;28;25109;-74
2023/03/22 02:19:54;;;;;;;13.40;8.18;;;8.50;99.90;;;;;;5078860;28;25103;-74
2023/03/22 02:22:27;;;;;;;17.13;9.43;;;8.50;99.90;;;;;;5078803;28;25083;-74
2023/03/22 02:25:22;;;;;;;16.13;8.82;;;8.40;99.90;;;;;;5078915;28;25067;-74
2023/03/22 02:28:05;;;;;;;14.30;8.00;;;8.40;99.90;;;;;;5079070;28;25045;-74
2023/03/22 02:30:51;;;;;;;15.32;8.60;;;8.40;99.90;;;;;;5078918;28;25060;-74
2023/03/22 02:33:34;;;;;;;15.45;9.13;;;8.40;99.90;;;;;;5078698;28;25083;-74
2023/03/22 02:36:08;;;;;;;18.50;9.60;;;8.40;99.90;;;;;;5078378;28;25066;-74
2023/03/22 02:39:06;;;;;;;14.15;8.35;;;8.40;99.90;;;;;;5078605;28;25084;-74
2023/03/22 02:41:42;;;;;;;16.25;9.32;;;8.40;99.90;;;;;;5078754;28;25083;-74
2023/03/22 02:44:25;;;;;;;13.75;8.23;;;8.40;99.90;;;;;;5078463;28;25076;-74
2023/03/22 02:47:28;;;;;;;16.92;8.48;;;8.30;99.90;;;;;;5078188;28;25082;-74
2023/03/22 02:50:29;;;;;;;16.55;9.35;;;8.40;99.90;;;;;;5060192;28;25096;-74
2023/03/22 02:53:36;;;;;;;17.98;8.52;;;8.40;99.90;;;;;;5078334;28;25085;-74
2023/03/22 02:56:08;;;;;;;15.48;8.00;;;8.50;99.90;;;;;;5078103;28;25069;-74
2023/03/22 02:58:47;;;;;;;26.55;9.02;;;8.50;99.90;;;;;;5077921;28;25102;-74
2023/03/22 03:01:35;;;;;;;14.32;8.30;;;8.50;99.90;;;;;;5078101;28;25156;-74
2023/03/22 03:04:09;;;;;;;15.32;8.35;;;8.50;99.90;;;;;;5077836;28;25099;-74
2023/03/22 03:06:44;;;;;;;14.75;8.23;;;8.50;99.90;;;;;;5078450;28;25068;-74
2023/03/22 03:09:18;;;;;;;16.70;9.37;;;8.50;99.90;;;;;;5077742;28;25108;-74
2023/03/22 03:11:47;;;;;;;18.77;8.52;;;8.50;99.90;;;;;;5078257;28;25140;-74
2023/03/22 03:14:22;;;;;;;19.05;8.27;;;8.60;99.90;;;;;;5078171;28;25076;-74
2023/03/22 03:17:29;;;;;;;15.10;8.70;;;8.60;99.90;;;;;;5078031;28;25055;-74
2023/03/22 03:20:36;;;;;;;12.45;7.45;;;8.60;99.90;;;;;;5077337;28;25132;-74
2023/03/22 03:23:27;;;;;;;11.95;7.25;;;8.60;99.90;;;;;;5059712;28;25072;-74
2023/03/22 03:26:20;;;;;;;14.60;8.05;;;8.60;99.90;;;;;;5077796;28;25068;-74
2023/03/22 03:29:23;;;;;;;13.13;7.68;;;8.70;99.90;;;;;;5076535;28;25063;-74
2023/03/22 03:32:05;;;;;;;16.75;7.10;;;8.70;99.90;;;;;;5077538;28;25107;-74
2023/03/22 03:34:48;;;;;;;12.90;6.72;;;8.80;99.90;;;;;;5077470;28;25086;-74
2023/03/22 03:37:29;;;;;;;13.30;7.53;;;8.80;99.90;;;;;;5077169;28;25055;-74
2023/03/22 03:40:28;;;;;;;16.17;8.00;;;8.80;99.90;;;;;;5077127;28;25112;-74
2023/03/22 03:42:59;;;;;;;14.55;7.93;;;8.80;99.90;;;;;;5057565;28;25058;-74
2023/03/22 03:45:27;;;;;;;15.30;8.45;;;8.80;99.90;;;;;;5077213;28;25124;-74
2023/03/22 03:47:59;;;;;;;15.43;7.90;;;8.80;99.90;;;;;;5059186;28;25093;-74
2023/03/22 03:50:27;;;;;;;14.57;7.90;;;8.80;99.90;;;;;;5076788;28;25094;-74
2023/03/22 03:52:55;;;;;;;17.08;6.78;;;8.80;99.90;;;;;;5077177;28;25128;-74
2023/03/22 03:55:22;;;;;;;14.55;7.63;;;8.80;99.90;;;;;;5077005;28;25061;-74
2023/03/22 03:57:50;;;;;;;13.57;7.43;;;8.90;99.90;;;;;;5058995;28;25133;-74
2023/03/22 04:00:18;;;;;;;13.90;7.93;;;8.90;99.90;;;;;;5077279;28;25068;-74
2023/03/22 04:02:45;;;;;;;13.00;7.10;;;8.90;99.90;;;;;;5076739;28;25113;-74
2023/03/22 04:05:13;;;;;;;14.68;7.57;;;8.90;99.90;;;;;;5058903;28;25078;-74
2023/03/22 04:07:40;;;;;;;13.82;7.63;;;9.00;99.90;;;;;;5076931;28;25070;-74
2023/03/22 04:10:08;;;;;;;16.40;7.80;;;8.90;99.90;;;;;;5076597;28;25112;-74
2023/03/22 04:12:36;;;;;;;14.45;7.55;;;9.00;99.90;;;;;;5076875;28;25083;-74
2023/03/22 04:15:04;;;;;;;14.43;6.55;;;9.00;99.90;;;;;;5076602;28;25100;-74
2023/03/22 04:17:31;;;;;;;13.85;7.10;;;9.00;99.90;;;;;;5077083;28;25055;-74
2023/03/22 04:19:58;;;;;;;13.80;7.07;;;9.00;99.90;;;;;;5076569;28;25062;-74
2023/03/22 04:22:26;;;;;;;10.38;6.55;;;9.00;99.90;;;;;;5076961;28;25068;-74
2023/03/22 04:24:54;;;;;;;10.65;6.95;;;9.10;99.90;;;;;;5076451;28;25092;-74
2023/03/22 04:27:21;;;;;;;9.80;6.00;;;9.10;99.90;;;;;;5076669;28;25063;-74
2023/03/22 04:29:49;;;;;;;12.95;7.18;;;9.10;99.90;;;;;;5076406;28;25062;-74
2023/03/22 04:32:24;;;;;;;13.13;6.43;;;9.10;99.90;;;;;;5076525;28;25055;-74
2023/03/22 04:34:52;;;;;;;14.02;7.80;;;9.10;99.90;;;;;;5058556;28;25059;-74
2023/03/22 04:37:23;;;;;;;13.50;6.93;;;9.10;99.90;;;;;;5076867;28;25052;-74
2023/03/22 04:39:51;;;;;;;16.42;8.07;;;9.10;99.90;;;;;;5076213;28;25058;-74
2023/03/22 04:42:18;;;;;;;12.55;7.05;;;9.10;99.90;;;;;;5076934;28;25077;-74
2023/03/22 04:44:46;;;;;;;15.65;7.65;;;9.10;99.90;;;;;;5076234;28;25077;-74
2023/03/22 04:47:13;;;;;;;13.82;7.55;;;9.10;99.90;;;;;;5076215;28;25064;-74
2023/03/22 04:49:41;;;;;;;13.43;7.20;;;9.10;99.90;;;;;;5076009;28;25066;-74
2023/03/22 04:52:09;;;;;;;15.15;7.28;;;9.10;99.90;;;;;;5076676;28;25078;-74
2023/03/22 04:54:37;;;;;;;13.18;7.25;;;9.00;99.90;;;;;;5076150;28;25074;-74
2023/03/22 04:57:04;;;;;;;15.77;8.38;;;9.00;99.90;;;;;;5076725;28;25135;-74
2023/03/22 04:59:31;;;;;;;16.85;7.88;;;9.00;99.90;;;;;;5058182;28;25082;-74
2023/03/22 05:01:58;;;;;;;14.70;7.13;;;8.90;99.90;;;;;;5076237;28;25062;-74
2023/03/22 05:04:27;;;;;;;13.25;8.15;;;8.90;99.90;;;;;;5076026;28;25062;-74
2023/03/22 05:06:54;;;;;;;12.90;8.25;;;8.90;99.90;;;;;;5076350;28;25151;-74
2023/03/22 05:09:21;;;;;;;14.43;8.68;;;8.90;99.90;;;;;;5075915;28;25059;-74
2023/03/22 05:11:49;;;;;;;17.65;8.30;;;8.90;99.90;;;;;;5076130;28;25065;-74
2023/03/22 05:14:16;;;;;;;18.05;8.85;;;8.80;99.90;;;;;;5058196;28;25079;-74
2023/03/22 05:16:43;;;;;;;14.95;8.50;;;8.90;99.90;;;;;;5076503;28;25116;-74
2023/03/22 05:19:12;;;;;;;20.92;9.60;;;8.80;99.90;;;;;;5076067;28;25092;-74
2023/03/22 05:21:42;;;;;;;19.48;8.98;;;8.80;99.90;;;;;;5075994;28;25076;-74
2023/03/22 05:24:10;;;;;;;12.77;8.27;;;8.70;99.90;;;;;;5075699;28;25074;-74
2023/03/22 05:26:41;;;;;;;15.68;9.15;;;8.70;99.90;;;;;;5075749;28;25081;-74
2023/03/22 05:29:10;;;;;;;16.02;9.20;;;8.70;99.90;;;;;;5075614;28;25073;-74
2023/03/22 05:31:37;;;;;;;16.63;9.32;;;8.70;99.90;;;;;;5058150;28;25051;-74
2023/03/22 05:34:04;;;;;;;19.45;9.68;;;8.70;99.90;;;;;;5057922;28;25059;-74
2023/03/22 05:36:35;;;;;;;16.98;9.35;;;8.70;99.90;;;;;;5076285;28;25063;-74
2023/03/22 05:39:03;;;;;;;21.95;10.00;;;8.70;99.90;;;;;;5075913;28;25066;-74
2023/03/22 05:41:32;;;;;;;16.95;9.70;;;8.70;99.90;;;;;;5076299;28;25137;-74
2023/03/22 05:44:00;;;;;;;18.73;10.23;;;8.70;99.90;;;;;;5075612;28;25079;-75
2023/03/22 05:46:27;;;;;;;19.52;10.57;;;8.70;99.90;;;;;;5075661;28;25061;-74
2023/03/22 05:48:55;;;;;;;19.70;9.80;;;8.70;99.90;;;;;;5075578;28;25089;-74
2023/03/22 05:51:24;;;;;;;15.35;9.35;;;8.70;99.90;;;;;;5054451;28;25104;-74
2023/03/22 05:53:53;;;;;;;18.42;9.93;;;8.70;99.90;;;;;;5058471;28;25058;-74
2023/03/22 05:56:23;;;;;;;19.15;10.95;;;8.70;99.90;;;;;;5059070;28;25051;-78
2023/03/22 05:58:51;;;;;;;21.77;11.52;;;8.70;99.90;;;;;;5057893;28;25171;-73
2023/03/22 06:01:20;;;;;;;18.13;10.57;;;8.70;99.90;;;;;;5059409;28;25069;-73
2023/03/22 06:03:48;;;;;;;19.45;10.52;;;8.60;99.90;;;;;;5059245;28;25071;-73
2023/03/22 06:06:15;;;;;;;22.33;9.50;;;8.70;99.90;;;;;;5059248;28;25098;-73
2023/03/22 06:08:43;;;;;;;17.88;10.05;;;8.60;99.90;;;;;;5059157;28;25073;-73
2023/03/22 06:11:11;;;;;;;21.75;10.25;;;8.60;99.90;;;;;;5058986;28;25071;-73
2023/03/22 06:13:39;;;;;;;20.13;10.23;;;8.50;99.90;;;;;;5059044;28;25118;-73
2023/03/22 06:16:06;;;;;;;18.13;9.70;;;8.50;99.90;;;;;;5057733;28;25073;-73
2023/03/22 06:18:34;;;;;;;18.45;9.45;;;8.50;99.90;;;;;;5057614;28;25094;-73
2023/03/22 06:21:01;;;;;;;20.33;10.23;;;8.50;99.90;;;;;;5058795;28;25161;-73
2023/03/22 06:23:28;;;;;;;16.10;9.25;;;8.50;99.90;;;;;;5058921;28;25110;-73
2023/03/22 06:25:55;;;;;;;18.05;10.10;;;8.50;99.90;;;;;;5058543;28;25066;-73
2023/03/22 06:28:28;;;;;;;19.13;10.95;;;8.50;99.90;;;;;;5058785;28;25105;-73
2023/03/22 06:30:56;;;;;;;16.80;10.10;;;8.50;99.90;;;;;;5058558;28;25049;-73
2023/03/22 06:33:23;;;;;;;20.02;10.25;;;8.50;99.90;;;;;;5057327;28;25078;-73
2023/03/22 06:35:50;;;;;;;19.73;9.98;;;8.60;99.90;;;;;;5058932;28;25093;-73
2023/03/22 06:38:16;;;;;;;21.27;9.73;;;8.60;99.90;;;;;;5058387;28;25071;-73
2023/03/22 06:40:44;;;;;;;23.60;11.48;;;8.70;99.90;;;;;;5058984;28;25063;-73
2023/03/22 06:43:13;;;;;;;16.75;9.68;;;8.70;99.90;;;;;;5058498;28;25128;-75
2023/03/22 06:45:40;;;;;;;17.50;9.77;;;8.70;99.90;;;;;;5058216;28;25076;-76
2023/03/22 06:48:07;;;;;;;19.25;10.40;;;8.70;99.90;;;;;;5057124;28;25099;-76
2023/03/22 06:50:37;;;;;;;19.35;10.27;;;8.70;99.90;;;;;;5066123;28;25080;-74
2023/03/22 06:53:06;;;;;;;19.00;9.60;;;8.80;99.90;;;;;;5060350;28;25108;-75
2023/03/22 06:55:34;;;;;;;20.23;9.98;;;8.90;99.90;;;;;;5060321;28;25076;-77
2023/03/22 06:58:03;;;;;;;20.50;9.77;;;8.90;99.90;;;;;;5078026;28;25147;-77
2023/03/22 07:00:33;;;;;;;20.23;10.02;;;9.00;99.90;;;;;;5060193;28;25100;-77
2023/03/22 07:03:00;;;;;;;15.82;9.43;;;9.10;99.90;;;;;;5078359;28;25163;-75
2023/03/22 07:05:28;;;;;;;19.52;9.75;;;9.20;99.90;;;;;;5078678;28;25115;-75
2023/03/22 07:07:55;;;;;;;14.77;8.55;;;9.30;99.90;;;;;;5077776;28;25049;-76
2023/03/22 07:10:23;;;;;;;17.95;7.82;;;9.40;99.90;;;;;;5077892;28;25070;-76
2023/03/22 07:12:51;;;;;;;13.70;7.32;;;9.60;99.90;;;;;;5077777;28;25067;-77
2023/03/22 07:15:22;;;;;;;16.63;7.50;;;9.80;99.90;;;;;;5077665;28;25091;-76
2023/03/22 07:17:54;;;;;;;19.60;7.20;;;10.00;99.90;;;;;;5077539;28;25059;-77
2023/03/22 07:20:21;;;;;;;10.45;4.90;;;10.20;99.90;;;;;;5077671;28;25118;-74
2023/03/22 07:22:52;;;;;;;14.93;5.95;;;10.40;99.90;;;;;;5077992;28;25106;-74
2023/03/22 07:25:20;;;;;;;9.40;5.40;;;10.70;99.90;;;;;;5077982;28;25133;-74
2023/03/22 07:27:47;;;;;;;14.32;5.30;;;10.90;99.90;;;;;;5077378;28;25082;-75
2023/03/22 07:30:15;;;;;;;9.38;5.53;;;11.00;99.90;;;;;;5077534;28;25056;-74
2023/03/22 07:32:42;;;;;;;10.95;5.35;;;11.10;99.90;;;;;;5059580;28;25108;-74
2023/03/22 07:35:10;;;;;;;9.38;4.30;;;11.20;99.90;;;;;;5077832;28;25064;-75
2023/03/22 07:37:37;;;;;;;9.38;5.07;;;11.30;99.90;;;;;;5077233;28;25072;-77
2023/03/22 07:40:05;;;;;;;10.68;5.03;;;11.40;99.90;;;;;;5059322;28;25063;-75
2023/03/22 07:42:33;;;;;;;7.35;3.78;;;11.50;99.90;;;;;;5077407;28;25136;-75
2023/03/22 07:45:01;;;;;;;13.13;5.80;;;11.60;99.90;;;;;;5077374;28;25111;-76
2023/03/22 07:47:29;;;;;;;10.10;5.20;;;11.60;99.90;;;;;;5077005;28;25094;-76
2023/03/22 07:49:57;;;;;;;11.10;5.93;;;11.60;99.90;;;;;;5077299;28;25054;-76
2023/03/22 07:52:24;;;;;;;13.30;5.75;;;11.70;99.90;;;;;;5059233;28;25133;-75
2023/03/22 07:54:52;;;;;;;11.48;5.70;;;11.70;99.90;;;;;;5076881;28;25055;-76
2023/03/22 07:57:20;;;;;;;12.80;5.35;;;11.70;99.90;;;;;;5077055;28;25060;-76
2023/03/22 07:59:47;;;;;;;13.98;5.47;;;11.70;99.90;;;;;;5059015;28;25103;-76
2023/03/22 08:02:14;;;;;;;9.52;5.80;;;11.80;99.90;;;;;;5077090;28;25114;-76
2023/03/22 08:04:43;;;;;;;13.80;5.20;;;11.80;99.90;;;;;;5058959;28;25057;-76
2023/03/22 08:07:11;;;;;;;8.95;4.75;;;11.90;99.90;;;;;;5076864;28;25087;-76
2023/03/22 08:09:38;;;;;;;10.80;4.60;;;11.90;99.90;;;;;;5058840;28;25122;-76
2023/03/22 08:12:07;;;;;;;10.45;4.70;;;12.00;99.90;;;;;;5058868;28;25070;-74
2023/03/22 08:14:34;;;;;;;9.55;4.97;;;12.00;99.90;;;;;;5076403;28;25095;-75
2023/03/22 08:17:01;;;;;;;11.50;4.32;;;12.10;99.90;;;;;;5076425;28;25134;-76
2023/03/22 08:19:29;;;;;;;9.90;4.57;;;12.20;99.90;;;;;;5076724;28;25048;-74
2023/03/22 08:21:56;;;;;;;7.75;3.42;;;12.20;99.90;;;;;;5077133;28;25120;-76
2023/03/22 08:24:25;;;;;;;9.38;4.97;;;12.20;99.90;;;;;;5076745;28;25137;-77
2023/03/22 08:26:53;;;;;;;9.05;4.88;;;12.20;99.90;;;;;;5076500;28;25115;-77
2023/03/22 08:29:22;;;;;;;9.18;4.47;;;12.30;99.90;;;;;;5076649;28;25072;-76
2023/03/22 08:31:50;;;;;;;11.95;4.82;;;12.30;99.90;;;;;;5076545;28;25075;-76
2023/03/22 08:34:18;;;;;;;8.95;4.65;;;12.30;99.90;;;;;;5076286;28;25121;-77
2023/03/22 08:36:45;;;;;;;10.75;4.75;;;12.30;99.90;;;;;;5058546;28;25128;-77
2023/03/22 08:39:12;;;;;;;6.80;4.05;;;12.30;99.90;;;;;;5076290;28;25082;-75
2023/03/22 08:41:39;;;;;;;8.40;4.78;;;12.30;99.90;;;;;;5058627;28;25051;-76
2023/03/22 08:44:07;;;;;;;11.20;4.82;;;12.40;99.90;;;;;;5058459;28;25096;-76
2023/03/22 08:46:34;;;;;;;8.23;4.22;;;12.40;99.90;;;;;;5058440;28;25083;-75
2023/03/22 08:49:03;;;;;;;7.28;4.78;;;12.50;99.90;;;;;;5077240;28;25138;-74
2023/03/22 08:51:30;;;;;;;9.80;5.00;;;12.50;99.90;;;;;;5076146;28;25053;-74
2023/03/22 08:53:59;;;;;;;12.07;4.57;;;12.60;99.90;;;;;;5058376;28;25051;-75
2023/03/22 08:56:26;;;;;;;7.30;4.25;;;12.70;99.90;;;;;;5076118;28;25093;-76
2023/03/22 08:58:53;;;;;;;19.55;4.20;;;12.70;99.90;;;;;;5076371;28;25066;-74
2023/03/22 09:01:20;;;;;;;8.60;4.05;;;12.80;99.90;;;;;;5075988;28;25080;-75
2023/03/22 09:03:47;;;;;;;10.55;4.00;;;12.90;99.90;;;;;;5075535;28;25061;-75
2023/03/22 09:06:15;;;;;;;10.30;4.50;;;12.90;99.90;;;;;;5076292;28;25130;-74
2023/03/22 09:08:42;;;;;;;8.27;4.50;;;13.00;99.90;;;;;;5058347;28;25083;-74
2023/03/22 09:11:11;;;;;;;9.30;3.90;;;13.10;99.90;;;;;;5076228;28;25105;-74
2023/03/22 09:13:38;;;;;;;6.03;3.10;;;13.20;99.90;;;;;;5076562;28;25093;-74
2023/03/22 09:16:07;;;;;;;6.63;3.42;;;13.20;99.90;;;;;;5076697;28;25137;-74
2023/03/22 09:18:40;;;;;;;7.28;3.83;;;13.30;99.90;;;;;;5075917;28;25073;-74
2023/03/22 09:21:08;;;;;;;9.02;3.85;;;13.30;99.90;;;;;;5075847;28;25094;-74
2023/03/22 09:23:36;;;;;;;10.07;5.03;;;13.30;99.90;;;;;;5076172;28;25113;-74
2023/03/22 09:26:06;;;;;;;4.82;2.40;;;13.40;99.90;;;;;;5076037;28;25082;-74
2023/03/22 09:28:35;;;;;;;10.63;3.90;;;13.50;99.90;;;;;;5078638;28;25107;-74
2023/03/22 09:31:08;;;;;;;4.35;2.92;;;13.50;99.90;;;;;;5080187;28;25083;-74
2023/03/22 09:33:36;;;;;;;9.98;4.32;;;13.50;99.90;;;;;;5080102;28;25132;-74
2023/03/22 09:36:05;;;;;;;7.47;3.20;;;13.50;99.90;;;;;;5079707;28;25153;-74
2023/03/22 09:38:34;;;;;;;5.32;2.75;;;13.50;99.90;;;;;;5079740;28;25055;-75
2023/03/22 09:41:11;;;;;;;11.07;3.25;;;13.50;99.90;;;;;;5079264;28;25055;-74
2023/03/22 09:43:52;;;;;;;3.97;1.95;;;13.50;99.90;;;;;;5079669;28;25062;-74
2023/03/22 09:46:41;;;;;;;5.68;3.05;;;13.60;99.90;;;;;;5079496;28;25066;-74
2023/03/22 09:49:18;;;;;;;3.88;2.22;;;13.70;99.90;;;;;;5079325;28;25056;-74
2023/03/22 09:51:51;;;;;;;7.25;3.00;;;13.80;99.90;;;;;;5079099;28;25085;-74
2023/03/22 09:54:37;;;;;;;7.65;2.20;;;13.90;99.90;;;;;;5079756;28;25121;-74
2023/03/22 09:57:28;;;;;;;5.53;2.03;;;14.00;99.90;;;;;;5079870;28;25075;-74
2023/03/22 10:00:17;;;;;;;6.05;2.92;;;14.00;99.90;;;;;;5078935;28;25067;-74
2023/03/22 10:02:44;;;;;;;7.22;2.20;;;14.10;99.90;;;;;;5079591;28;25049;-74
2023/03/22 10:05:30;;;;;;;4.13;2.10;;;14.10;99.90;;;;;;5079427;28;25095;-74
2023/03/22 10:08:17;;;;;;;4.78;2.25;;;14.10;99.90;;;;;;5061197;28;25066;-74
2023/03/22 10:10:45;;;;;;;9.55;3.25;;;14.10;99.90;;;;;;5078920;28;25098;-74
2023/03/22 10:13:23;;;;;;;6.50;2.33;;;14.00;99.90;;;;;;5061042;28;25070;-74
2023/03/22 10:16:02;;;;;;;8.45;3.30;;;14.00;99.90;;;;;;5078814;28;25125;-71
2023/03/22 10:18:49;;;;;;;4.38;2.90;;;14.10;99.90;;;;;;5078778;28;25085;-74
2023/03/22 10:21:18;;;;;;;5.88;2.25;;;14.20;99.90;;;;;;5060896;28;25048;-72
2023/03/22 10:24:23;;;;;;;4.90;2.50;;;14.30;99.90;;;;;;5061243;28;25061;-74
2023/03/22 10:26:51;;;;;;;3.95;1.95;;;14.40;99.90;;;;;;5062954;28;25079;-74
2023/03/22 10:29:26;;;;;;;3.60;1.52;;;14.50;99.90;;;;;;5079169;28;25074;-74
2023/03/22 10:31:54;;;;;;;4.93;1.37;;;14.50;99.90;;;;;;5060966;28;25124;-75
2023/03/22 10:34:32;;;;;;;3.00;1.17;;;14.50;99.90;;;;;;5078765;28;25102;-74
2023/03/22 10:37:03;;;;;;;3.92;1.27;;;14.50;99.90;;;;;;5078482;28;25069;-75
2023/03/22 10:39:45;;;;;;;5.53;1.60;;;14.40;99.90;;;;;;5077863;28;25054;-75
2023/03/22 10:42:22;;;;;;;3.03;1.00;;;14.50;99.90;;;;;;5078573;28;25053;-74
2023/03/22 10:45:01;;;;;;;2.78;1.33;;;14.50;99.90;;;;;;5078551;28;25124;-76
2023/03/22 10:48:02;;;;;;;4.78;1.23;;;14.70;99.90;;;;;;5060486;28;25061;-76
2023/03/22 10:50:42;;;;;;;3.83;1.20;;;14.80;99.90;;;;;;5078360;28;25091;-75
2023/03/22 10:53:30;;;;;;;2.47;1.27;;;14.70;99.90;;;;;;5078132;28;25058;-75
2023/03/22 10:55:57;;;;;;;4.35;1.17;;;14.60;99.90;;;;;;5062116;28;25062;-74
2023/03/22 10:58:32;;;;;;;5.55;1.30;;;14.60;99.90;;;;;;5078030;28;25073;-74
2023/03/22 11:01:09;;;;;;;5.90;1.08;;;14.60;99.90;;;;;;5078037;28;25100;-74
2023/03/22 11:03:40;;;;;;;11.52;1.63;;;14.60;99.90;;;;;;5078163;28;25067;-74
2023/03/22 11:06:35;;;;;;;2.80;1.00;;;14.60;99.90;;;;;;5077839;28;25050;-75
2023/03/22 11:09:17;;;;;;;3.17;1.08;;;14.60;99.90;;;;;;5077811;28;25106;-75
2023/03/22 11:11:53;;;;;;;2.88;0.95;;;14.70;99.90;;;;;;5078262;28;25134;-73
2023/03/22 11:14:27;;;;;;;;;;;14.70;99.90;;;;;;5078017;28;25061;-73
2023/03/22 11:17:01;;;;;;;7.72;1.33;;;14.80;99.90;;;;;;5078217;28;25068;-73
2023/03/22 11:19:34;;;;;;;3.33;1.33;;;14.90;99.90;;;;;;5059741;28;25065;-76
2023/03/22 11:22:17;;;;;;;5.32;1.40;;;15.10;99.90;;;;;;5077389;28;20403;-75
2023/03/22 11:24:46;;;;;;;3.38;1.42;;;15.20;99.90;;;;;;5078065;28;25144;-76
2023/03/22 11:27:27;;;;;;;26.25;10.57;;;15.30;99.90;;;;;;5077724;28;25112;-75
2023/03/22 11:30:08;;;;;;;4.47;1.38;;;15.40;99.90;;;;;;5077906;28;25085;-75
2023/03/22 11:32:38;;;;;;;5.60;1.40;;;15.40;99.90;;;;;;5059819;28;25100;-75
2023/03/22 11:35:25;;;;;;;7.82;1.75;;;15.30;99.90;;;;;;5077476;28;25051;-74
2023/03/22 11:37:54;;;;;;;4.22;1.60;;;15.30;99.90;;;;;;5076893;28;25059;-77
2023/03/22 11:40:25;;;;;;;12.55;5.65;;;15.30;99.90;;;;;;5077295;28;25058;-75
2023/03/22 11:43:22;;;;;;;3.65;1.15;;;15.40;99.90;;;;;;5077421;28;25131;-74
2023/03/22 11:45:57;;;;;;;4.38;1.38;;;15.50;99.90;;;;;;5077091;28;25057;-74
2023/03/22 11:48:29;;;;;;;4.47;1.65;;;15.60;99.90;;;;;;5077091;28;25062;-74
2023/03/22 11:51:07;;;;;;;25.45;9.93;;;15.70;99.90;;;;;;5076183;28;25076;-74
2023/03/22 11:53:39;;;;;;;7.63;3.38;;;15.90;99.90;;;;;;5077186;28;25125;-75
2023/03/22 11:56:10;;;;;;;7.70;1.33;;;16.00;99.90;;;;;;5076907;28;25117;-74
2023/03/22 11:58:50;;;;;;;4.50;1.35;;;16.10;99.90;;;;;;5059975;28;25114;-75
2023/03/22 12:01:57;;;;;;;6.15;1.45;;;15.90;99.90;;;;;;5059222;28;25055;-74
2023/03/22 12:04:33;;;;;;;3.00;1.55;;;15.90;99.90;;;;;;5077101;28;25122;-74
2023/03/22 12:07:10;;;;;;;4.88;1.50;;;15.80;99.90;;;;;;5077294;28;25060;-74
2023/03/22 12:09:53;;;;;;;8.23;2.05;;;16.00;99.90;;;;;;5076675;28;25115;-74
2023/03/22 12:12:33;;;;;;;3.80;1.35;;;16.10;99.90;;;;;;5077036;28;25073;-74
2023/03/22 12:15:05;;;;;;;3.65;1.42;;;16.20;99.90;;;;;;5058798;28;25060;-74
2023/03/22 12:17:55;;;;;;;4.60;1.08;;;16.30;99.70;;;;;;5076570;28;25071;-74
2023/03/22 12:20:44;;;;;;;3.17;1.17;;;16.30;99.40;;;;;;5076568;28;25114;-74
2023/03/22 12:23:17;;;;;;;4.60;1.20;;;16.20;99.90;;;;;;5076503;28;25058;-74
2023/03/22 12:26:05;;;;;;;2.38;1.20;;;16.00;99.40;;;;;;5076503;28;25139;-74
2023/03/22 12:28:56;;;;;;;6.43;1.38;;;16.00;99.90;;;;;;5076700;28;25060;-74
2023/03/22 12:31:29;;;;;;;3.97;1.27;;;16.00;99.10;;;;;;5077122;28;25156;-74
2023/03/22 12:34:04;;;;;;;5.05;1.25;;;15.90;99.90;;;;;;5058575;28;25079;-74
2023/03/22 12:36:44;;;;;;;4.60;1.43;;;15.90;99.70;;;;;;5076580;28;25107;-74
2023/03/22 12:39:34;;;;;;;5.85;1.17;;;16.00;99.60;;;;;;5076325;28;25094;-74
2023/03/22 12:42:38;;;;;;;7.65;1.60;;;16.10;99.00;;;;;;5076554;28;25104;-75
2023/03/22 12:45:18;;;;;;;3.30;1.48;;;16.20;98.90;;;;;;5071826;28;25109;-75
2023/03/22 12:47:52;;;;;;;4.20;1.23;;;16.10;97.70;;;;;;5076240;28;25151;-75
2023/03/22 12:50:34;;;;;;;5.20;1.40;;;16.10;98.60;;;;;;5076037;28;25088;-74
2023/03/22 12:53:03;;;;;;;4.22;1.23;;;16.20;99.10;;;;;;5076135;28;25047;-75
2023/03/22 12:55:34;;;;;;;5.55;1.38;;;16.30;98.30;;;;;;5076658;28;25113;-78
2023/03/22 12:58:06;;;;;;;3.65;2.03;;;16.40;98.20;;;;;;5076368;28;25128;-73
2023/03/22 13:01:13;;;;;;;6.13;1.35;;;16.50;98.10;;;;;;5076049;28;25080;-76
2023/03/22 13:03:53;;;;;;;2.85;1.08;;;16.60;98.00;;;;;;4979766;28;25065;-75
2023/03/22 13:06:33;;;;;;;3.10;1.13;;;16.70;97.50;;;;;;5069443;28;25070;-75
2023/03/22 13:09:17;;;;;;;8.45;2.55;;;16.80;97.40;;;;;;5080078;28;25096;-74
2023/03/22 13:11:47;;;;;;;5.25;1.40;;;16.80;96.90;;;;;;5080069;28;25069;-74
2023/03/22 13:14:50;;;;;;;2.92;1.52;;;16.90;96.10;;;;;;5079984;28;25072;-74
2023/03/22 13:17:41;;;;;;;4.90;1.58;;;16.90;95.50;;;;;;5027645;28;25153;-74